Liberty, IL (62347)

12:59 PM CST on February 14, 2016 (GMT -0600)
Quincy Regional-Baldwin | | Change Station
CLOSE
Current Station
Airport
Location: Quincy,
Elevation: 768 ft
Nearby Weather Stations
Active Advisory: Winter Weather Advisory

Elev 768 ft 39.94 °N, 91.19 °W | Updated 5 minutes ago

Overcast
Overcast
22 °F
Feels Like 9 °F
N
15
Wind Variable Wind from SE

Today
High -- | Low -- °F
--% Chance of Precip.
Yesterday
High -- | Low -- °F
Precip. -- in
Pressure 30.01 in
Visibility 8.0 miles
Clouds Overcast 1400 ft
Windchill 9 °F
Dew Point 17 °F
Humidity 82%
Rainfall 0.02 in
Snow Depth Not available.
6:58 AM 5:38 PM
Waxing Crescent, 44% visible
METAR KUIN 141854Z AUTO 14013KT 8SM OVC014 M06/M08 A2997 RMK AO2 SLP160 T10561083
Pressure 30.01 in
Visibility 8.0 miles
Clouds Overcast 1400 ft
Windchill 9 °F
Dew Point 17 °F
Humidity 82%
Rainfall 0.02 in
Snow Depth Not available.
6:58 AM 5:38 PM
Waxing Crescent, 44% visible
METAR KUIN 141854Z AUTO 14013KT 8SM OVC014 M06/M08 A2997 RMK AO2 SLP160 T10561083

10-Day Weather Forecast

Almanac

Astronomy

Feb. 14, 2016 Rise Set
Actual Time
Civil Twilight
Nautical Twilight
Astronomical Twilight
Moon
Length of Visible Light
Length of Day
Tomorrow will be .
, % of the Moon is Illuminated

Today's Extremes

State Highs State Lows

Community

WunderPhotos

Upload Photos

1,892,870 photos uploaded!

WunderBlog® & News

Nearby

Air Quality

  Air Quality AQ Index Pollutant
Not available.

Snow Depth

Station Depth Elevation

Earthquake Activity

City Distance Mag. Time & Date
Minimum magnitude displayed is 2.5.

Coastal Water Temperatures

Place Temperature

Stations

Nearby Weather Stations

Station Location Temp. Windchill Dew Point Humidity Wind Precip. Elev Updated Type
                   

Watches & Warnings

Winter Weather Advisory
Issued: 12:03 PM CST Feb. 14, 2016 – National Weather Service

... Winter Weather Advisory remains in effect until 6 PM CST this
evening...

* timing... snow will continue to taper off early this afternoon
with some freezing drizzle possible.

* Accumulations... 1 to 3 inches of snow.

* Winds... southeast 10 to 15 mph.

* Impacts... the wintry precipitation will result in hazardous
travel conditions... especially on bridges... overpasses... and
untreated roads. Parking lots and sidewalks will become
slippery as well.

Precautionary/preparedness actions...

A Winter Weather Advisory is issued for a variety of winter
weather conditions... such as snow... blowing snow... sleet... or
freezing drizzle and rain. It only takes a small amount of wintry
precipitation to make roads... bridges... sidewalks... and parking
lots icy and dangerous. It is often difficult to tell when ice
begins to form... so do not be caught off guard.